Goldvein, Virginia
Current Conditions -  °F | °C
As of 5:15 AM on Sunday 26 Oct 2014 (Local Time) from KHWY Reporting Station
Scattered Clouds Scattered Clouds  
Wind Chill: 15°   Ceiling: Unl
Heat Index: 15°   Visibility: 10mi
Dew Point:   Wind: 0mph
Humidity: 60%   Direction: NA
Pressure: 29.74"   Gusts: NA
Location:  38.45°N, 77.65°W
Report Text: KHWY 260915Z AUTO 00000KT 10SM SCT085 15/07 A2974 RMK AO2 T01470071
Loading
Personal Weather Stations






























Interactive Weather Map
Tropical Storm Tracking
New forecast layout! Learn more

10-Day Weather Forecast

Advertisements
Track Severe Weather on mobile